Time;durP1;ratioP1;P1;durP2;ratioP2;P2;SDS_P1;SDS_P2;PMS_P1;PMS_P2;Temp;Humidity;BMP_temperature;BMP_pressure;BME280_temperature;BME280_humidity;BME280_pressure;Samples;Min_cycle;Max_cycle;Signal;HPM_P1;HPM_P2
2021/03/14 00:01:00;;;;;;;16.15;7.30;;;;;;;4.98;66.15;100031.23;1797580;77;21524;-60
2021/03/14 00:03:29;;;;;;;12.00;6.22;;;;;;;4.93;66.23;100024.16;1805955;79;21196;-58
2021/03/14 00:05:58;;;;;;;13.38;7.53;;;;;;;4.88;66.34;100017.57;1797953;77;21183;-58
2021/03/14 00:08:28;;;;;;;11.45;6.58;;;;;;;4.80;66.43;100019.34;1800590;79;21172;-58
2021/03/14 00:10:59;;;;;;;15.15;6.85;;;;;;;4.74;66.57;100018.40;1742060;82;21214;-59
2021/03/14 00:13:30;;;;;;;11.73;6.58;;;;;;;4.72;66.68;100018.49;1748125;81;21140;-58
2021/03/14 00:15:58;;;;;;;10.05;6.10;;;;;;;4.74;66.67;100015.80;1809830;79;21188;-58
2021/03/14 00:18:36;;;;;;;10.20;6.15;;;;;;;4.84;66.56;100018.20;1801197;79;21203;-58
2021/03/14 00:21:04;;;;;;;11.70;6.17;;;;;;;4.88;66.49;100011.05;1794470;79;21101;-58
2021/03/14 00:23:33;;;;;;;11.68;7.33;;;;;;;4.82;66.51;100016.16;1763187;79;21163;-59
2021/03/14 00:26:01;;;;;;;11.80;6.87;;;;;;;4.77;66.60;100013.00;1784670;79;21140;-58
2021/03/14 00:28:29;;;;;;;11.73;6.35;;;;;;;4.69;66.86;100008.72;1786058;79;21888;-59
2021/03/14 00:30:56;;;;;;;12.18;7.50;;;;;;;4.69;66.86;100008.72;1810805;79;21516;-59
2021/03/14 00:33:24;;;;;;;13.95;8.33;;;;;;;4.64;66.90;100013.77;1809543;79;21108;-58
2021/03/14 00:35:52;;;;;;;12.73;7.08;;;;;;;4.59;66.96;100007.14;1791690;79;21168;-59
2021/03/14 00:38:20;;;;;;;12.20;7.55;;;;;;;4.68;66.90;100009.20;1784455;79;21116;-59
2021/03/14 00:40:47;;;;;;;12.70;6.62;;;;;;;4.68;66.90;100009.20;1790343;79;21556;-58
2021/03/14 00:43:15;;;;;;;11.05;7.10;;;;;;;4.72;66.83;100007.23;1796208;79;21155;-58
2021/03/14 00:45:44;;;;;;;12.47;7.12;;;;;;;4.67;66.92;100007.98;1788247;79;21163;-59
2021/03/14 00:48:14;;;;;;;11.12;6.50;;;;;;;4.60;67.02;100014.04;1789848;79;21650;-58
2021/03/14 00:50:43;;;;;;;11.45;6.97;;;;;;;4.53;67.13;100009.67;1802440;79;21160;-58
2021/03/14 00:53:12;;;;;;;12.05;6.83;;;;;;;4.48;67.30;100014.80;1753773;79;21162;-58
2021/03/14 00:55:43;;;;;;;12.50;6.83;;;;;;;4.40;67.41;100008.26;1778290;79;21132;-58
2021/03/14 00:58:10;;;;;;;15.20;6.60;;;;;;;4.34;67.75;100015.61;1770365;79;21188;-58
2021/03/14 01:00:39;;;;;;;10.58;6.78;;;;;;;4.34;67.79;100013.00;1808065;79;21147;-58
2021/03/14 01:03:07;;;;;;;11.68;6.75;;;;;;;4.40;67.64;100010.04;1795595;79;21195;-58
2021/03/14 01:05:37;;;;;;;11.55;7.55;;;;;;;4.41;67.72;100009.12;1812003;79;21151;-59
2021/03/14 01:08:05;;;;;;;13.65;6.87;;;;;;;4.37;67.79;100014.13;1805088;79;21171;-59
2021/03/14 01:10:33;;;;;;;12.53;6.95;;;;;;;4.32;67.95;100009.22;1786786;79;21152;-58
2021/03/14 01:13:02;;;;;;;11.35;5.90;;;;;;;4.26;68.09;100010.40;1791087;79;21184;-58
2021/03/14 01:15:31;;;;;;;10.15;5.85;;;;;;;4.22;68.19;100007.62;1690479;84;21141;-57
2021/03/14 01:17:58;;;;;;;11.80;6.47;;;;;;;4.16;68.33;100008.45;1758638;80;21211;-58
2021/03/14 01:20:26;;;;;;;12.88;7.78;;;;;;;4.09;68.55;99998.86;1747767;80;21577;-58
2021/03/14 01:22:53;;;;;;;15.03;7.60;;;;;;;4.12;68.56;99998.68;1796478;79;22297;-58
2021/03/14 01:25:20;;;;;;;11.93;7.20;;;;;;;4.23;68.56;99992.82;1733320;81;21202;-58
2021/03/14 01:27:50;;;;;;;10.50;6.33;;;;;;;4.26;68.48;99990.86;1762051;80;21192;-58
2021/03/14 01:30:18;;;;;;;16.25;7.08;;;;;;;4.26;68.43;99993.47;1758324;81;21265;-58
2021/03/14 01:32:46;;;;;;;13.70;7.62;;;;;;;4.23;68.54;99992.82;1787745;79;21160;-58
2021/03/14 01:35:14;;;;;;;10.58;6.28;;;;;;;4.22;68.52;99995.04;1776563;80;21122;-58
2021/03/14 01:37:43;;;;;;;13.00;7.37;;;;;;;4.18;68.47;99996.99;1722754;82;21222;-57
2021/03/14 01:40:15;;;;;;;11.95;7.45;;;;;;;4.12;68.69;100002.59;1718908;81;21127;-58
2021/03/14 01:42:42;;;;;;;13.98;8.23;;;;;;;4.06;68.79;99999.03;1796161;79;21332;-58
2021/03/14 01:45:14;;;;;;;12.65;7.15;;;;;;;4.08;68.80;99987.61;1791796;78;21203;-58
2021/03/14 01:47:45;;;;;;;11.60;7.25;;;;;;;4.17;68.66;99987.53;1764214;79;21175;-58
2021/03/14 01:50:23;;;;;;;15.75;7.05;;;;;;;4.23;68.53;99989.74;1789133;79;22243;-58
2021/03/14 01:52:50;;;;;;;10.55;6.08;;;;;;;4.25;68.49;99995.72;1794216;79;21624;-58
2021/03/14 01:55:19;;;;;;;12.37;7.03;;;;;;;4.22;68.54;99997.20;1791457;77;21189;-58
2021/03/14 01:57:47;;;;;;;11.88;7.67;;;;;;;4.18;68.70;99989.18;1775942;79;21180;-58
2021/03/14 02:00:20;;;;;;;13.90;7.95;;;;;;;4.07;69.18;99989.00;1777785;80;21144;-58
2021/03/14 02:02:48;;;;;;;13.40;8.15;;;;;;;4.07;69.18;99989.00;1774196;80;21110;-57
2021/03/14 02:05:18;;;;;;;10.88;6.92;;;;;;;3.99;69.26;100001.16;1790982;79;22224;-57
2021/03/14 02:07:49;;;;;;;11.80;8.00;;;;;;;3.96;69.33;99998.73;1718599;81;22014;-58
2021/03/14 02:10:21;;;;;;;13.88;8.08;;;;;;;4.04;69.35;100000.42;1794047;79;21204;-57
2021/03/14 02:13:31;;;;;;;16.07;7.62;;;;;;;4.07;69.30;99995.52;1778411;80;21558;-58
2021/03/14 02:16:22;;;;;;;14.23;8.53;;;;;;;3.93;69.54;100001.51;1759530;80;21218;-58
2021/03/14 02:18:52;;;;;;;13.28;7.47;;;;;;;3.93;69.54;100001.51;1779442;80;21171;-58
2021/03/14 02:21:20;;;;;;;12.65;8.35;;;;;;;3.85;69.69;100005.88;1812621;79;21336;-58
2021/03/14 02:24:02;;;;;;;15.63;8.23;;;;;;;3.77;69.92;100002.87;1798419;79;21180;-58
2021/03/14 02:26:46;;;;;;;18.32;9.18;;;;;;;3.72;70.05;100007.52;1770118;80;21183;-58
2021/03/14 02:29:19;;;;;;;16.00;9.38;;;;;;;3.73;70.07;100007.87;1792665;79;21148;-58
2021/03/14 02:31:50;;;;;;;16.25;9.68;;;;;;;3.80;70.19;100002.70;1787129;79;21096;-57
2021/03/14 02:34:29;;;;;;;20.97;10.58;;;;;;;3.80;70.24;100007.91;1797715;79;21137;-59
2021/03/14 02:36:57;;;;;;;17.30;11.30;;;;;;;3.75;70.39;100004.73;1762400;79;21157;-58
2021/03/14 02:39:24;;;;;;;23.18;12.40;;;;;;;3.68;70.55;100015.97;1798033;79;21148;-59
2021/03/14 02:41:56;;;;;;;19.05;10.98;;;;;;;3.64;70.64;100015.75;1783606;79;21160;-58
2021/03/14 02:44:27;;;;;;;19.67;11.57;;;;;;;3.61;70.84;100015.09;1791710;79;21124;-61
2021/03/14 02:46:54;;;;;;;18.82;11.08;;;;;;;3.65;71.14;100016.61;1796503;79;21398;-61
2021/03/14 02:49:22;;;;;;;20.57;11.90;;;;;;;3.74;70.96;100010.86;1787308;77;21187;-59
2021/03/14 02:51:50;;;;;;;17.70;11.25;;;;;;;3.79;70.96;100010.60;1791870;79;21168;-59
2021/03/14 02:55:37;;;;;;;19.40;12.80;;;;;;;3.78;71.25;100014.12;1866730;76;22615;-59
2021/03/14 02:58:05;;;;;;;22.62;13.60;;;;;;;3.72;71.28;100015.32;1750869;80;22277;-60
2021/03/14 03:00:34;;;;;;;22.98;14.07;;;;;;;3.68;71.36;100026.38;1786526;78;22817;-60
2021/03/14 03:03:03;;;;;;;21.12;12.63;;;;;;;3.66;71.57;100024.77;1803213;77;21135;-58
2021/03/14 03:05:31;;;;;;;17.62;11.30;;;;;;;3.69;71.58;100033.70;1822119;78;21137;-58
2021/03/14 03:07:59;;;;;;;17.55;10.48;;;;;;;3.78;71.40;100029.27;1803013;78;21123;-60
2021/03/14 03:10:34;;;;;;;24.45;13.15;;;;;;;3.83;71.36;100016.84;1797761;78;21176;-60
2021/03/14 03:13:09;;;;;;;16.10;10.70;;;;;;;3.86;71.29;100019.25;1764404;79;22913;-60
2021/03/14 03:15:36;;;;;;;17.52;11.30;;;;;;;3.82;71.24;100027.34;1709553;82;21623;-59
2021/03/14 03:18:05;;;;;;;19.60;13.08;;;;;;;3.77;71.41;100021.09;1704903;82;21572;-60
2021/03/14 03:20:33;;;;;;;18.55;11.20;;;;;;;3.77;71.46;100009.86;1701336;82;21212;-59
2021/03/14 03:23:00;;;;;;;18.92;12.10;;;;;;;3.84;71.24;100008.09;1747628;81;21588;-60
2021/03/14 03:25:28;;;;;;;19.23;11.85;;;;;;;3.87;71.21;100022.23;1717323;82;21195;-59
2021/03/14 03:27:55;;;;;;;18.42;11.48;;;;;;;3.84;71.20;100021.58;1744072;82;21129;-58
2021/03/14 03:30:26;;;;;;;16.75;10.40;;;;;;;3.80;71.23;100020.06;1713471;82;21186;-61
2021/03/14 03:32:53;;;;;;;20.20;10.98;;;;;;;3.74;71.37;100018.66;1731618;82;21200;-58
2021/03/14 03:35:21;;;;;;;19.77;12.15;;;;;;;3.71;71.44;100017.53;1736553;82;21441;-59
2021/03/14 03:37:49;;;;;;;17.55;11.05;;;;;;;3.72;71.53;100020.52;1706007;83;21167;-58
2021/03/14 03:40:21;;;;;;;16.73;9.88;;;;;;;3.81;71.31;100029.09;1673894;85;21137;-60
2021/03/14 03:43:11;;;;;;;18.67;11.55;;;;;;;3.84;71.22;100027.62;1681687;84;22350;-58
2021/03/14 03:45:45;;;;;;;18.10;11.22;;;;;;;3.82;71.21;100015.16;1682440;84;21168;-59
2021/03/14 03:48:22;;;;;;;18.77;11.70;;;;;;;3.77;71.26;100016.36;1665142;84;21840;-59
2021/03/14 03:50:49;;;;;;;;;;;;;;;3.71;71.37;100009.25;1678227;84;21180;-58
2021/03/14 03:53:17;;;;;;;19.12;12.23;;;;;;;3.68;71.46;100013.80;1694564;82;20311;-59
2021/03/14 03:55:44;;;;;;;17.48;11.03;;;;;;;3.62;71.64;100016.30;1655663;84;23553;-58
2021/03/14 03:58:12;;;;;;;16.10;10.68;;;;;;;3.73;71.46;100010.47;1645550;85;21251;-58
2021/03/14 04:00:40;;;;;;;14.75;9.80;;;;;;;3.83;71.21;100009.48;1661650;85;21164;-59
2021/03/14 04:03:08;;;;;;;16.73;9.88;;;;;;;3.87;71.04;100011.83;1639553;85;21194;-58
2021/03/14 04:05:37;;;;;;;15.48;9.83;;;;;;;3.85;71.05;100007.18;1686154;84;21158;-59
2021/03/14 04:08:05;;;;;;;15.35;10.35;;;;;;;3.82;71.06;100009.13;1682671;84;22147;-61
2021/03/14 04:10:34;;;;;;;13.30;9.73;;;;;;;3.80;71.02;99994.90;1677089;84;21196;-60
2021/03/14 04:13:03;;;;;;;15.20;9.65;;;;;;;3.77;71.07;99998.98;1665630;84;21224;-61
2021/03/14 04:15:33;;;;;;;13.88;8.73;;;;;;;3.77;71.07;99992.47;1672387;85;21270;-59
2021/03/14 04:18:01;;;;;;;16.05;9.53;;;;;;;3.76;70.97;99997.28;1709586;82;21283;-62
2021/03/14 04:20:32;;;;;;;16.12;8.68;;;;;;;3.84;70.78;99993.78;1693521;82;21987;-60
2021/03/14 04:23:04;;;;;;;14.30;8.70;;;;;;;3.94;70.62;100002.38;1715957;82;21180;-60
2021/03/14 04:25:32;;;;;;;16.45;9.78;;;;;;;3.98;70.50;99998.17;1711862;82;21180;-59
2021/03/14 04:27:59;;;;;;;16.32;8.40;;;;;;;3.94;70.55;100007.10;1717050;82;21146;-58
2021/03/14 04:30:27;;;;;;;13.10;8.58;;;;;;;3.94;70.55;100007.10;1688045;82;21219;-59
2021/03/14 04:32:55;;;;;;;14.55;8.80;;;;;;;3.93;70.35;99995.48;1727283;82;21224;-59
2021/03/14 04:35:24;;;;;;;13.88;7.80;;;;;;;3.88;70.33;99991.83;1726388;82;21196;-60
2021/03/14 04:37:53;;;;;;;17.87;9.63;;;;;;;3.81;70.41;99995.25;1716052;82;21419;-59
2021/03/14 04:40:22;;;;;;;11.95;7.47;;;;;;;3.81;70.46;99987.92;1696620;81;21643;-60
2021/03/14 04:42:52;;;;;;;12.50;7.53;;;;;;;3.89;70.33;99985.71;1723253;82;21192;-58
2021/03/14 04:45:22;;;;;;;12.47;7.83;;;;;;;4.00;70.14;99979.86;1723230;82;22088;-59
2021/03/14 04:47:50;;;;;;;12.93;8.65;;;;;;;4.04;70.04;99983.97;1732278;82;21645;-57
2021/03/14 04:50:21;;;;;;;16.90;9.05;;;;;;;4.03;70.08;99987.02;1706181;82;21105;-59
2021/03/14 04:52:51;;;;;;;12.05;7.62;;;;;;;4.03;70.04;99977.91;1701965;82;21514;-59
2021/03/14 04:55:20;;;;;;;11.55;7.70;;;;;;;4.02;70.01;99974.12;1717773;82;21197;-59
2021/03/14 04:57:49;;;;;;;15.00;7.87;;;;;;;4.02;70.09;99976.25;1709513;82;21925;-59
2021/03/14 05:00:20;;;;;;;9.60;6.60;;;;;;;4.02;70.04;99981.94;1713339;82;21399;-63
2021/03/14 05:02:50;;;;;;;16.35;9.23;;;;;;;4.01;70.01;99970.66;1700652;82;21722;-60
2021/03/14 05:05:18;;;;;;;12.03;7.22;;;;;;;4.04;69.94;99970.95;1716641;82;21193;-61
2021/03/14 05:07:46;;;;;;;12.18;7.20;;;;;;;4.16;69.72;99977.20;1717654;82;21564;-60
2021/03/14 05:10:23;;;;;;;12.37;6.45;;;;;;;4.23;69.58;99979.33;1702548;82;21231;-60
2021/03/14 05:12:52;;;;;;;12.88;6.90;;;;;;;4.30;69.44;99971.15;1712298;81;21219;-61
2021/03/14 05:15:20;;;;;;;18.00;8.25;;;;;;;4.32;69.37;99978.40;1736831;81;21132;-61
2021/03/14 05:17:50;;;;;;;11.30;7.60;;;;;;;4.31;69.13;99983.26;1741988;81;21176;-63
2021/03/14 05:20:19;;;;;;;12.80;7.20;;;;;;;4.31;69.13;99983.26;1741057;80;21188;-61
2021/03/14 05:22:48;;;;;;;12.73;7.28;;;;;;;4.25;69.37;99991.81;1713443;81;21249;-61
2021/03/14 05:25:18;;;;;;;12.47;7.83;;;;;;;4.22;69.52;99996.34;1749064;81;21156;-60
2021/03/14 05:27:49;;;;;;;13.85;7.70;;;;;;;4.22;69.61;99994.59;1737171;81;21231;-60
2021/03/14 05:30:26;;;;;;;10.68;6.80;;;;;;;4.26;69.41;99998.67;1735198;81;21654;-59
2021/03/14 05:32:55;;;;;;;10.10;5.70;;;;;;;4.36;69.20;99998.14;1745312;81;21137;-61
2021/03/14 05:35:25;;;;;;;10.15;5.80;;;;;;;4.42;69.11;99999.91;1731576;81;21204;-59
2021/03/14 05:37:56;;;;;;;11.15;5.95;;;;;;;4.41;69.18;99997.39;1717719;81;21148;-59
2021/03/14 05:40:24;;;;;;;12.47;6.95;;;;;;;4.43;69.16;100000.27;1719367;81;21168;-60
2021/03/14 05:42:52;;;;;;;11.50;6.62;;;;;;;4.47;69.13;99997.00;1737450;81;21135;-63
2021/03/14 05:45:20;;;;;;;10.18;6.00;;;;;;;4.48;68.97;100001.30;1739155;81;21163;-62
2021/03/14 05:47:47;;;;;;;11.22;5.78;;;;;;;4.48;68.90;99997.39;1741773;81;21214;-59
2021/03/14 05:50:22;;;;;;;10.13;5.87;;;;;;;4.47;68.80;100008.73;1748014;81;21155;-59
2021/03/14 05:52:50;;;;;;;10.38;6.15;;;;;;;4.49;68.84;100013.41;1741807;81;21188;-62
2021/03/14 05:55:23;;;;;;;9.73;5.90;;;;;;;4.65;68.59;100015.90;1733705;81;21148;-60
2021/03/14 05:57:54;;;;;;;10.15;5.72;;;;;;;4.78;68.27;100014.69;1736351;81;21243;-61
2021/03/14 06:00:30;;;;;;;12.25;6.62;;;;;;;4.84;67.97;100009.94;1713952;81;21458;-61
2021/03/14 06:03:01;;;;;;;11.25;5.15;;;;;;;4.82;67.87;100005.73;1737009;81;21176;-61
2021/03/14 06:05:30;;;;;;;12.45;6.00;;;;;;;4.80;67.95;100005.83;1694375;83;21208;-62
2021/03/14 06:08:00;;;;;;;9.85;6.37;;;;;;;4.83;67.90;99999.60;1674501;83;21222;-60
2021/03/14 06:10:29;;;;;;;9.00;5.30;;;;;;;4.86;67.92;100012.45;1705123;83;21213;-61
2021/03/14 06:12:58;;;;;;;9.13;5.47;;;;;;;4.87;67.75;100014.10;1703463;83;21614;-59
2021/03/14 06:15:25;;;;;;;8.88;5.25;;;;;;;4.88;67.77;100014.48;1696039;83;21194;-61
2021/03/14 06:17:53;;;;;;;10.88;5.58;;;;;;;4.87;67.59;100021.09;1679830;83;21768;-61
2021/03/14 06:20:44;;;;;;;9.68;4.83;;;;;;;4.82;67.48;100024.84;1699785;82;21207;-60
2021/03/14 06:23:16;;;;;;;7.65;4.03;;;;;;;4.84;67.49;100020.80;1668969;84;21199;-60
2021/03/14 06:25:48;;;;;;;9.88;5.37;;;;;;;4.95;67.27;100009.73;1652768;83;21266;-60
2021/03/14 06:28:16;;;;;;;9.23;4.65;;;;;;;4.92;67.35;100009.44;1675732;83;21233;-60
2021/03/14 06:30:44;;;;;;;8.85;5.03;;;;;;;4.88;67.36;100021.00;1678533;83;21223;-61
2021/03/14 06:33:16;;;;;;;10.43;4.83;;;;;;;4.83;67.32;100010.03;1666841;83;21258;-60
2021/03/14 06:38:32;;;;;;;10.32;5.30;;;;;;;4.80;67.43;100008.91;1802939;78;23271;-60
2021/03/14 06:41:08;;;;;;;9.93;5.03;;;;;;;4.70;67.68;100016.92;1748628;80;21149;-59
2021/03/14 06:43:47;;;;;;;8.68;4.80;;;;;;;4.67;67.92;100017.11;1774458;80;21206;-60
2021/03/14 06:46:31;;;;;;;7.85;4.30;;;;;;;4.73;68.08;100007.63;1719148;81;21139;-60
2021/03/14 06:49:11;;;;;;;12.35;5.28;;;;;;;4.88;67.83;100006.66;1704355;82;21160;-62
2021/03/14 06:51:40;;;;;;;10.32;5.53;;;;;;;4.98;67.70;100010.37;1694419;83;21172;-58
2021/03/14 06:54:33;;;;;;;7.17;4.17;;;;;;;5.00;67.56;99999.84;1715361;83;21213;-58
2021/03/14 07:10:51;;;;;;;9.10;5.62;;;;;;;5.01;67.58;100008.05;1827693;76;23410;-60
2021/03/14 07:13:19;;;;;;;11.73;5.37;;;;;;;5.08;67.48;100011.08;1800303;79;21139;-59
2021/03/14 07:15:50;;;;;;;8.85;4.67;;;;;;;5.24;67.08;100000.52;1794945;77;22827;-60
2021/03/14 07:18:18;;;;;;;10.53;4.65;;;;;;;5.32;66.84;99999.09;1801450;77;21128;-59
2021/03/14 07:20:45;;;;;;;9.83;4.50;;;;;;;5.35;66.92;99996.29;1802717;77;21068;-60
2021/03/14 07:23:16;;;;;;;10.45;4.47;;;;;;;5.40;66.75;99999.91;1764934;79;21175;-62
2021/03/14 07:25:45;;;;;;;9.55;4.90;;;;;;;5.46;66.89;100008.62;1812238;77;21132;-60
2021/03/14 07:28:12;;;;;;;7.83;4.00;;;;;;;5.46;66.89;100008.62;1791772;79;21211;-64
2021/03/14 07:30:40;;;;;;;7.97;4.40;;;;;;;5.55;66.55;100008.53;1798060;77;21638;-60
2021/03/14 07:33:07;;;;;;;8.43;4.70;;;;;;;5.55;66.55;100008.53;1762699;77;21205;-59
2021/03/14 07:35:35;;;;;;;9.83;5.20;;;;;;;5.58;66.05;100016.13;1795787;77;21518;-58
2021/03/14 07:38:03;;;;;;;8.03;4.22;;;;;;;5.63;65.71;100018.00;1805209;77;21163;-61
2021/03/14 07:40:31;;;;;;;8.03;4.03;;;;;;;5.79;65.80;100019.61;1793941;79;21370;-59
2021/03/14 07:43:00;;;;;;;8.95;3.85;;;;;;;5.88;65.54;100019.80;1772733;79;21207;-58
2021/03/14 07:45:31;;;;;;;8.63;3.77;;;;;;;5.92;65.29;100019.16;1794208;79;21429;-66
2021/03/14 07:48:00;;;;;;;9.98;4.30;;;;;;;5.92;64.80;100010.02;1808719;77;21189;-65
2021/03/14 07:50:30;;;;;;;8.68;4.37;;;;;;;5.86;64.72;100018.25;1762012;79;21670;-61
2021/03/14 07:53:08;;;;;;;9.33;4.78;;;;;;;5.69;65.57;100024.59;1776621;79;22142;-59
2021/03/14 07:55:36;;;;;;;8.83;4.90;;;;;;;5.69;65.57;100024.59;1778547;77;21126;-59
2021/03/14 07:58:04;;;;;;;9.58;5.58;;;;;;;5.61;65.54;100027.69;1759309;80;21202;-60
2021/03/14 08:00:34;;;;;;;7.00;3.60;;;;;;;5.61;65.54;100027.69;1739620;81;21819;-59
2021/03/14 08:03:07;;;;;;;9.23;4.35;;;;;;;5.72;65.44;100029.61;1797056;78;21167;-58
2021/03/14 08:05:46;;;;;;;8.30;3.85;;;;;;;5.85;65.17;100017.88;1804403;77;21191;-57
2021/03/14 08:08:40;;;;;;;8.18;4.67;;;;;;;5.90;65.07;99998.81;1813122;77;21191;-61
2021/03/14 08:11:25;;;;;;;8.00;3.98;;;;;;;5.90;65.07;99998.81;1737453;81;21190;-61
2021/03/14 08:13:52;;;;;;;6.12;3.62;;;;;;;5.92;64.76;99999.09;1735082;80;21234;-60
2021/03/14 08:16:21;;;;;;;6.75;3.98;;;;;;;5.92;64.66;100000.41;1761297;80;21182;-63
2021/03/14 08:18:52;;;;;;;7.03;3.22;;;;;;;5.92;64.63;100010.02;1748430;79;21228;-61
2021/03/14 08:21:28;;;;;;;7.60;3.60;;;;;;;5.94;64.75;100008.97;1778874;79;21136;-61
2021/03/14 08:23:58;;;;;;;8.10;4.62;;;;;;;5.99;64.73;100007.39;1705154;82;21160;-61
2021/03/14 08:26:32;;;;;;;6.97;3.90;;;;;;;6.13;64.59;100011.20;1760383;80;21221;-64
2021/03/14 08:29:08;;;;;;;6.03;3.12;;;;;;;6.35;64.18;100011.05;1729441;81;26734;-60
2021/03/14 08:31:52;;;;;;;8.28;5.03;;;;;;;6.45;63.55;100008.17;1711170;82;22273;-60
2021/03/14 08:34:36;;;;;;;8.33;4.33;;;;;;;6.47;63.45;100012.84;1765154;79;22814;-62
2021/03/14 08:37:23;;;;;;;8.43;4.72;;;;;;;6.48;63.68;100020.21;1733149;82;21172;-64
2021/03/14 08:40:00;;;;;;;8.03;4.30;;;;;;;6.48;63.39;100015.81;1711853;82;21215;-61
2021/03/14 08:42:54;;;;;;;8.60;3.90;;;;;;;6.47;63.22;99995.86;1710036;82;21639;-64
2021/03/14 08:45:33;;;;;;;9.10;5.08;;;;;;;6.46;62.92;100004.62;1717539;81;21174;-62
2021/03/14 08:48:20;;;;;;;9.23;5.30;;;;;;;6.38;62.88;99997.78;1783332;77;28039;-60
2021/03/14 08:50:49;;;;;;;9.60;5.28;;;;;;;6.48;63.01;99996.69;1767837;80;21184;-60
2021/03/14 08:53:22;;;;;;;8.48;4.05;;;;;;;6.70;62.54;100020.37;1776248;80;21204;-62
2021/03/14 08:55:57;;;;;;;9.13;3.93;;;;;;;6.80;62.31;100009.30;1742676;80;21191;-64
2021/03/14 08:58:25;;;;;;;9.43;5.25;;;;;;;6.83;62.24;100024.30;1708501;81;21414;-61
2021/03/14 09:01:10;;;;;;;8.98;4.33;;;;;;;6.84;62.04;100023.36;1705939;83;21235;-61
2021/03/14 09:03:58;;;;;;;8.10;4.40;;;;;;;6.84;61.71;100045.59;1680023;81;21207;-60
2021/03/14 09:06:29;;;;;;;8.55;4.87;;;;;;;6.74;61.77;100017.11;1712340;81;21616;-61
2021/03/14 09:19:51;;;;;;;12.63;7.33;;;;;;;6.47;61.84;100002.39;1784514;78;38914;-62
2021/03/14 09:22:28;;;;;;;10.72;6.58;;;;;;;6.58;61.62;99998.20;1797956;78;28444;-59
2021/03/14 09:35:57;;;;;;;9.20;4.90;;;;;;;7.03;60.70;99982.82;1764184;78;22782;-62
2021/03/14 09:38:26;;;;;;;10.10;6.40;;;;;;;7.04;61.35;99983.16;1775335;77;21202;-59
2021/03/14 09:40:55;;;;;;;8.90;4.65;;;;;;;7.23;61.08;99978.29;1778077;77;21219;-59
2021/03/14 09:43:28;;;;;;;11.60;6.35;;;;;;;7.44;60.25;99979.80;1766444;78;21157;-59
2021/03/14 09:46:17;;;;;;;8.38;5.33;;;;;;;7.67;59.68;99979.90;1758921;79;22757;-60
2021/03/14 09:48:53;;;;;;;9.85;6.05;;;;;;;7.75;59.73;99983.23;1703300;82;21176;-60
2021/03/14 09:51:21;;;;;;;11.53;6.95;;;;;;;7.87;59.07;99988.03;1708000;82;21232;-59
2021/03/14 09:53:49;;;;;;;10.13;5.62;;;;;;;7.88;58.02;99985.30;1727158;82;21164;-62
2021/03/14 09:56:18;;;;;;;9.58;5.90;;;;;;;7.81;58.17;99986.72;1721937;81;21656;-62
2021/03/14 10:09:41;;;;;;;10.60;5.87;;;;;;;7.50;59.66;99991.63;1914126;74;22798;-62
2021/03/14 10:12:18;;;;;;;12.07;7.85;;;;;;;7.45;59.84;99983.27;1794653;77;22651;-62
2021/03/14 10:14:47;;;;;;;11.10;6.15;;;;;;;7.44;59.74;99982.41;1739817;80;21152;-65
2021/03/14 10:17:14;;;;;;;9.50;5.58;;;;;;;7.44;60.03;99985.52;1736447;80;21255;-61
2021/03/14 10:19:43;;;;;;;11.60;6.47;;;;;;;7.46;59.87;99982.30;1772337;78;21167;-64
2021/03/14 10:22:11;;;;;;;11.10;6.80;;;;;;;7.45;59.92;99971.48;1785646;80;21155;-64
2021/03/14 10:24:46;;;;;;;12.47;7.83;;;;;;;7.46;59.77;99952.68;1750503;80;21548;-64
2021/03/14 10:27:21;;;;;;;12.85;7.20;;;;;;;7.44;59.78;99960.65;1771732;80;21539;-64
2021/03/14 10:40:35;;;;;;;13.75;7.55;;;;;;;7.21;60.20;99952.71;1800789;77;22736;-64
2021/03/14 10:43:26;;;;;;;11.95;6.60;;;;;;;7.04;60.70;99961.78;1797111;78;21179;-60
2021/03/14 10:45:58;;;;;;;12.63;6.50;;;;;;;6.98;60.98;99954.37;1797922;78;22105;-66
2021/03/14 10:48:28;;;;;;;12.25;7.08;;;;;;;6.95;61.26;99952.45;1781716;78;21195;-64
2021/03/14 10:51:02;;;;;;;9.63;5.97;;;;;;;7.07;61.23;99946.33;1796076;78;21211;-62
2021/03/14 10:53:30;;;;;;;12.50;7.47;;;;;;;7.28;60.67;99930.00;1779769;78;21239;-63
2021/03/14 10:56:08;;;;;;;11.25;6.75;;;;;;;7.36;60.50;99932.44;1688046;83;22311;-65
2021/03/14 10:58:41;;;;;;;11.25;5.90;;;;;;;7.38;60.48;99925.75;1740015;79;22203;-62
2021/03/14 11:01:27;;;;;;;12.45;7.05;;;;;;;7.46;60.38;99927.33;1809762;79;22636;-61
2021/03/14 11:03:56;;;;;;;13.03;7.53;;;;;;;7.48;60.35;99929.38;1775510;80;21568;-63
2021/03/14 11:06:24;;;;;;;13.13;7.25;;;;;;;7.57;60.49;99936.53;1750002;80;21285;-61
2021/03/14 11:09:05;;;;;;;11.75;6.83;;;;;;;7.67;60.16;99933.25;1776049;80;21053;-63
2021/03/14 11:11:46;;;;;;;10.38;6.03;;;;;;;7.70;59.77;99935.61;1737009;81;21195;-63
2021/03/14 11:14:35;;;;;;;14.13;7.05;;;;;;;7.67;59.47;99931.45;1751467;80;21200;-63
2021/03/14 11:17:15;;;;;;;14.43;7.55;;;;;;;7.67;59.53;99930.63;1743277;80;21164;-65
2021/03/14 11:20:07;;;;;;;12.85;6.97;;;;;;;7.68;59.62;99918.70;1829802;76;23112;-71
2021/03/14 11:22:36;;;;;;;15.20;7.58;;;;;;;7.67;59.62;99917.53;1757872;79;21136;-65
2021/03/14 11:25:09;;;;;;;12.63;7.33;;;;;;;7.68;59.58;99907.40;1798272;79;21183;-72
2021/03/14 11:27:36;;;;;;;13.58;7.65;;;;;;;7.67;59.83;99907.06;1797879;79;21144;-71
2021/03/14 11:30:07;;;;;;;14.70;7.03;;;;;;;7.69;60.11;99900.73;1767580;79;21170;-71
2021/03/14 11:32:35;;;;;;;13.32;7.62;;;;;;;7.78;59.74;99904.44;1764868;79;21021;-68
2021/03/14 11:35:14;;;;;;;11.68;7.55;;;;;;;7.84;59.79;99894.81;1744952;79;23406;-66
2021/03/14 11:37:58;;;;;;;12.43;7.43;;;;;;;7.84;59.59;99897.44;1724808;82;21180;-66
2021/03/14 11:40:39;;;;;;;13.90;8.28;;;;;;;7.83;59.72;99891.00;1876532;74;22701;-66
2021/03/14 11:43:17;;;;;;;15.28;7.97;;;;;;;7.75;59.77;99885.02;1848908;75;21163;-64
2021/03/14 11:45:46;;;;;;;14.75;8.68;;;;;;;7.71;60.10;99879.67;1843073;76;21302;-69
2021/03/14 11:48:14;;;;;;;16.10;8.25;;;;;;;7.69;60.18;99879.78;1784777;79;21002;-69
2021/03/14 11:50:41;;;;;;;13.10;8.10;;;;;;;7.69;60.30;99874.55;1811542;78;21123;-65
2021/03/14 11:53:10;;;;;;;14.70;8.15;;;;;;;7.66;60.39;99873.47;1756833;80;21179;-67
2021/03/14 11:55:39;;;;;;;14.10;7.78;;;;;;;7.65;60.44;99877.06;1793879;78;21118;-66
2021/03/14 11:58:07;;;;;;;10.68;6.50;;;;;;;7.70;60.54;99870.14;1818741;77;23204;-64
2021/03/14 12:00:35;;;;;;;14.75;8.80;;;;;;;7.84;60.44;99867.31;1788182;78;21072;-66
2021/03/14 12:03:03;;;;;;;15.35;8.38;;;;;;;7.93;60.29;99873.13;1800034;78;21156;-66
2021/03/14 12:05:38;;;;;;;13.53;7.22;;;;;;;7.97;60.22;99875.07;1806803;77;21156;-65
2021/03/14 12:08:09;;;;;;;13.30;8.18;;;;;;;7.99;59.86;99875.29;1778135;78;21888;-64
2021/03/14 12:10:38;;;;;;;15.70;8.50;;;;;;;7.92;60.01;99866.25;1812872;77;21578;-64
2021/03/14 12:13:06;;;;;;;14.00;8.45;;;;;;;7.94;60.28;99868.75;1781649;78;21566;-65
2021/03/14 12:15:33;;;;;;;15.58;8.18;;;;;;;8.00;60.06;99866.48;1784286;78;21718;-66
2021/03/14 12:18:01;;;;;;;13.70;8.13;;;;;;;8.02;59.97;99864.20;1805175;78;21172;-65
2021/03/14 12:20:40;;;;;;;14.93;8.23;;;;;;;8.05;59.99;99846.95;1755554;78;22848;-68
2021/03/14 12:23:13;;;;;;;13.05;7.55;;;;;;;8.06;60.10;99849.45;1734335;81;21175;-66
2021/03/14 12:25:42;;;;;;;12.20;7.42;;;;;;;8.11;59.90;99849.09;1743921;80;21215;-64
2021/03/14 12:28:11;;;;;;;15.10;8.08;;;;;;;8.16;59.91;99845.64;1704479;82;21175;-67
2021/03/14 12:30:39;;;;;;;10.50;7.05;;;;;;;8.21;59.48;99843.97;1738918;80;21153;-68
2021/03/14 12:33:08;;;;;;;15.03;8.88;;;;;;;8.18;59.50;99843.23;1745272;82;21181;-63
2021/03/14 12:35:36;;;;;;;13.48;7.92;;;;;;;8.11;59.71;99843.85;1719315;82;21187;-66
2021/03/14 12:38:06;;;;;;;14.25;7.75;;;;;;;8.05;59.88;99845.15;1688858;83;21395;-65
2021/03/14 12:40:33;;;;;;;13.20;6.90;;;;;;;8.00;60.15;99840.75;1715934;82;21709;-65
2021/03/14 12:43:03;;;;;;;11.95;7.87;;;;;;;7.97;60.28;99836.59;1728388;81;21171;-68
2021/03/14 12:45:33;;;;;;;12.47;8.15;;;;;;;7.95;60.46;99843.74;1675621;83;21220;-67
2021/03/14 12:48:00;;;;;;;15.15;7.92;;;;;;;7.94;60.48;99831.59;1712453;82;21161;-64
2021/03/14 12:50:30;;;;;;;13.25;7.95;;;;;;;7.95;60.38;99848.98;1677855;83;21180;-64